sensor_id;sensor_type;location;lat;lon;timestamp;P1;durP1;ratioP1;P2;durP2;ratioP2
71464;SDS011;59274;49.874;9.154;2023-03-13T00:00:17;15.73;;;4.00;;
71464;SDS011;59274;49.874;9.154;2023-03-13T00:02:43;16.57;;;3.80;;
71464;SDS011;59274;49.874;9.154;2023-03-13T00:05:12;16.05;;;4.05;;
71464;SDS011;59274;49.874;9.154;2023-03-13T00:07:38;17.33;;;4.65;;
71464;SDS011;59274;49.874;9.154;2023-03-13T00:10:04;13.52;;;4.00;;
71464;SDS011;59274;49.874;9.154;2023-03-13T00:12:31;15.65;;;4.20;;
71464;SDS011;59274;49.874;9.154;2023-03-13T00:14:56;18.73;;;4.13;;
71464;SDS011;59274;49.874;9.154;2023-03-13T00:17:22;16.83;;;4.03;;
71464;SDS011;59274;49.874;9.154;2023-03-13T00:19:48;14.05;;;3.75;;
71464;SDS011;59274;49.874;9.154;2023-03-13T00:22:14;17.83;;;4.45;;
71464;SDS011;59274;49.874;9.154;2023-03-13T00:24:40;14.20;;;3.57;;
71464;SDS011;59274;49.874;9.154;2023-03-13T00:27:05;18.07;;;4.53;;
71464;SDS011;59274;49.874;9.154;2023-03-13T00:29:31;17.85;;;4.25;;
71464;SDS011;59274;49.874;9.154;2023-03-13T00:31:57;15.50;;;3.70;;
71464;SDS011;59274;49.874;9.154;2023-03-13T00:34:23;18.70;;;4.47;;
71464;SDS011;59274;49.874;9.154;2023-03-13T00:36:51;14.27;;;3.87;;
71464;SDS011;59274;49.874;9.154;2023-03-13T00:39:17;11.93;;;3.85;;
71464;SDS011;59274;49.874;9.154;2023-03-13T00:41:43;15.70;;;4.00;;
71464;SDS011;59274;49.874;9.154;2023-03-13T00:44:08;15.75;;;3.78;;
71464;SDS011;59274;49.874;9.154;2023-03-13T00:46:34;14.77;;;4.20;;
71464;SDS011;59274;49.874;9.154;2023-03-13T00:49:00;16.30;;;3.65;;
71464;SDS011;59274;49.874;9.154;2023-03-13T00:51:26;14.93;;;4.33;;
71464;SDS011;59274;49.874;9.154;2023-03-13T00:53:53;13.93;;;3.70;;
71464;SDS011;59274;49.874;9.154;2023-03-13T00:56:24;17.85;;;4.15;;
71464;SDS011;59274;49.874;9.154;2023-03-13T00:58:50;17.50;;;3.88;;
71464;SDS011;59274;49.874;9.154;2023-03-13T01:01:26;14.13;;;3.80;;
71464;SDS011;59274;49.874;9.154;2023-03-13T01:03:54;17.90;;;3.70;;
71464;SDS011;59274;49.874;9.154;2023-03-13T01:06:23;14.77;;;4.05;;
71464;SDS011;59274;49.874;9.154;2023-03-13T01:08:51;15.83;;;3.53;;
71464;SDS011;59274;49.874;9.154;2023-03-13T01:11:18;14.25;;;3.40;;
71464;SDS011;59274;49.874;9.154;2023-03-13T01:13:45;12.90;;;3.95;;
71464;SDS011;59274;49.874;9.154;2023-03-13T01:16:13;17.35;;;3.70;;
71464;SDS011;59274;49.874;9.154;2023-03-13T01:18:46;19.42;;;3.78;;
71464;SDS011;59274;49.874;9.154;2023-03-13T01:21:13;12.63;;;3.20;;
71464;SDS011;59274;49.874;9.154;2023-03-13T01:23:40;12.88;;;2.97;;
71464;SDS011;59274;49.874;9.154;2023-03-13T01:26:05;13.33;;;3.13;;
71464;SDS011;59274;49.874;9.154;2023-03-13T01:28:33;17.58;;;3.90;;
71464;SDS011;59274;49.874;9.154;2023-03-13T01:30:59;14.05;;;3.67;;
71464;SDS011;59274;49.874;9.154;2023-03-13T01:33:33;18.50;;;4.07;;
71464;SDS011;59274;49.874;9.154;2023-03-13T01:36:02;15.47;;;3.70;;
71464;SDS011;59274;49.874;9.154;2023-03-13T01:38:28;14.60;;;3.42;;
71464;SDS011;59274;49.874;9.154;2023-03-13T01:40:53;15.03;;;3.13;;
71464;SDS011;59274;49.874;9.154;2023-03-13T01:43:23;12.63;;;3.00;;
71464;SDS011;59274;49.874;9.154;2023-03-13T01:46:01;13.65;;;3.35;;
71464;SDS011;59274;49.874;9.154;2023-03-13T01:48:32;13.25;;;3.10;;
71464;SDS011;59274;49.874;9.154;2023-03-13T01:51:01;14.50;;;3.25;;
71464;SDS011;59274;49.874;9.154;2023-03-13T01:53:30;16.20;;;3.13;;
71464;SDS011;59274;49.874;9.154;2023-03-13T01:56:00;12.27;;;2.90;;
71464;SDS011;59274;49.874;9.154;2023-03-13T01:58:30;15.27;;;3.13;;
71464;SDS011;59274;49.874;9.154;2023-03-13T02:00:56;15.43;;;3.30;;
71464;SDS011;59274;49.874;9.154;2023-03-13T02:03:22;10.68;;;2.92;;
71464;SDS011;59274;49.874;9.154;2023-03-13T02:05:48;13.40;;;3.00;;
71464;SDS011;59274;49.874;9.154;2023-03-13T02:08:20;16.08;;;3.80;;
71464;SDS011;59274;49.874;9.154;2023-03-13T02:10:52;10.77;;;2.70;;
71464;SDS011;59274;49.874;9.154;2023-03-13T02:13:22;12.07;;;3.00;;
71464;SDS011;59274;49.874;9.154;2023-03-13T02:15:49;10.75;;;3.10;;
71464;SDS011;59274;49.874;9.154;2023-03-13T02:18:15;11.87;;;2.60;;
71464;SDS011;59274;49.874;9.154;2023-03-13T02:20:41;14.43;;;2.95;;
71464;SDS011;59274;49.874;9.154;2023-03-13T02:23:29;12.33;;;3.17;;
71464;SDS011;59274;49.874;9.154;2023-03-13T02:25:55;13.13;;;2.67;;
71464;SDS011;59274;49.874;9.154;2023-03-13T02:28:25;17.43;;;3.00;;
71464;SDS011;59274;49.874;9.154;2023-03-13T02:30:57;15.93;;;2.70;;
71464;SDS011;59274;49.874;9.154;2023-03-13T02:33:25;9.25;;;2.20;;
71464;SDS011;59274;49.874;9.154;2023-03-13T02:35:53;13.65;;;2.35;;
71464;SDS011;59274;49.874;9.154;2023-03-13T02:38:20;13.25;;;2.35;;
71464;SDS011;59274;49.874;9.154;2023-03-13T02:40:48;10.07;;;2.13;;
71464;SDS011;59274;49.874;9.154;2023-03-13T02:43:17;10.40;;;2.00;;
71464;SDS011;59274;49.874;9.154;2023-03-13T02:46:10;6.80;;;1.80;;
71464;SDS011;59274;49.874;9.154;2023-03-13T02:48:41;8.35;;;2.05;;
71464;SDS011;59274;49.874;9.154;2023-03-13T02:51:28;8.82;;;2.30;;
71464;SDS011;59274;49.874;9.154;2023-03-13T02:53:58;7.70;;;1.67;;
71464;SDS011;59274;49.874;9.154;2023-03-13T02:56:29;14.27;;;1.90;;
71464;SDS011;59274;49.874;9.154;2023-03-13T02:58:57;10.18;;;2.15;;
71464;SDS011;59274;49.874;9.154;2023-03-13T03:01:23;13.50;;;1.90;;
71464;SDS011;59274;49.874;9.154;2023-03-13T03:03:48;11.10;;;2.00;;
71464;SDS011;59274;49.874;9.154;2023-03-13T03:06:14;9.05;;;1.80;;
71464;SDS011;59274;49.874;9.154;2023-03-13T03:08:39;13.43;;;2.03;;
71464;SDS011;59274;49.874;9.154;2023-03-13T03:11:05;10.15;;;1.88;;
71464;SDS011;59274;49.874;9.154;2023-03-13T03:13:31;10.43;;;1.97;;
71464;SDS011;59274;49.874;9.154;2023-03-13T03:15:57;9.57;;;1.70;;
71464;SDS011;59274;49.874;9.154;2023-03-13T03:18:23;8.38;;;2.30;;
71464;SDS011;59274;49.874;9.154;2023-03-13T03:20:48;12.57;;;2.08;;
71464;SDS011;59274;49.874;9.154;2023-03-13T03:23:14;12.43;;;2.00;;
71464;SDS011;59274;49.874;9.154;2023-03-13T03:25:39;10.97;;;1.77;;
71464;SDS011;59274;49.874;9.154;2023-03-13T03:28:04;6.93;;;1.60;;
71464;SDS011;59274;49.874;9.154;2023-03-13T03:30:30;8.00;;;2.10;;
71464;SDS011;59274;49.874;9.154;2023-03-13T03:32:56;9.00;;;1.87;;
71464;SDS011;59274;49.874;9.154;2023-03-13T03:35:21;9.60;;;1.93;;
71464;SDS011;59274;49.874;9.154;2023-03-13T03:37:46;9.37;;;2.30;;
71464;SDS011;59274;49.874;9.154;2023-03-13T03:40:12;12.45;;;1.83;;
71464;SDS011;59274;49.874;9.154;2023-03-13T03:42:38;9.03;;;1.90;;
71464;SDS011;59274;49.874;9.154;2023-03-13T03:45:03;12.65;;;2.13;;
71464;SDS011;59274;49.874;9.154;2023-03-13T03:47:29;8.52;;;1.58;;
71464;SDS011;59274;49.874;9.154;2023-03-13T03:49:54;9.83;;;1.80;;
71464;SDS011;59274;49.874;9.154;2023-03-13T03:52:20;9.05;;;2.28;;
71464;SDS011;59274;49.874;9.154;2023-03-13T03:54:45;9.77;;;2.10;;
71464;SDS011;59274;49.874;9.154;2023-03-13T03:57:10;12.90;;;2.27;;
71464;SDS011;59274;49.874;9.154;2023-03-13T03:59:36;12.73;;;2.20;;
71464;SDS011;59274;49.874;9.154;2023-03-13T04:02:01;10.97;;;1.87;;
71464;SDS011;59274;49.874;9.154;2023-03-13T04:04:27;8.35;;;1.70;;
71464;SDS011;59274;49.874;9.154;2023-03-13T04:06:52;10.37;;;1.97;;
71464;SDS011;59274;49.874;9.154;2023-03-13T04:09:18;11.00;;;1.83;;
71464;SDS011;59274;49.874;9.154;2023-03-13T04:11:44;10.13;;;2.13;;
71464;SDS011;59274;49.874;9.154;2023-03-13T04:14:09;9.67;;;1.60;;
71464;SDS011;59274;49.874;9.154;2023-03-13T04:16:35;10.83;;;1.90;;
71464;SDS011;59274;49.874;9.154;2023-03-13T04:19:00;9.57;;;2.10;;
71464;SDS011;59274;49.874;9.154;2023-03-13T04:21:26;9.85;;;2.08;;
71464;SDS011;59274;49.874;9.154;2023-03-13T04:23:51;8.07;;;1.93;;
71464;SDS011;59274;49.874;9.154;2023-03-13T04:26:16;9.13;;;2.10;;
71464;SDS011;59274;49.874;9.154;2023-03-13T04:28:42;7.87;;;2.03;;
71464;SDS011;59274;49.874;9.154;2023-03-13T04:31:07;11.27;;;2.07;;
71464;SDS011;59274;49.874;9.154;2023-03-13T04:33:33;8.38;;;1.80;;
71464;SDS011;59274;49.874;9.154;2023-03-13T04:36:01;8.87;;;1.97;;
71464;SDS011;59274;49.874;9.154;2023-03-13T04:38:27;14.43;;;1.95;;
71464;SDS011;59274;49.874;9.154;2023-03-13T04:40:52;7.75;;;2.08;;
71464;SDS011;59274;49.874;9.154;2023-03-13T04:43:18;14.67;;;2.00;;
71464;SDS011;59274;49.874;9.154;2023-03-13T04:45:43;7.70;;;1.97;;
71464;SDS011;59274;49.874;9.154;2023-03-13T04:48:08;11.13;;;2.23;;
71464;SDS011;59274;49.874;9.154;2023-03-13T04:50:34;9.80;;;1.67;;
71464;SDS011;59274;49.874;9.154;2023-03-13T04:52:59;9.00;;;1.77;;
71464;SDS011;59274;49.874;9.154;2023-03-13T04:55:25;9.83;;;1.97;;
71464;SDS011;59274;49.874;9.154;2023-03-13T04:57:50;12.27;;;2.00;;
71464;SDS011;59274;49.874;9.154;2023-03-13T05:00:16;7.47;;;1.80;;
71464;SDS011;59274;49.874;9.154;2023-03-13T05:02:41;9.03;;;1.67;;
71464;SDS011;59274;49.874;9.154;2023-03-13T05:05:07;8.87;;;2.20;;
71464;SDS011;59274;49.874;9.154;2023-03-13T05:07:32;8.25;;;1.85;;
71464;SDS011;59274;49.874;9.154;2023-03-13T05:09:58;6.85;;;2.15;;
71464;SDS011;59274;49.874;9.154;2023-03-13T05:12:23;10.20;;;2.03;;
71464;SDS011;59274;49.874;9.154;2023-03-13T05:14:49;6.93;;;1.70;;
71464;SDS011;59274;49.874;9.154;2023-03-13T05:17:14;8.10;;;1.80;;
71464;SDS011;59274;49.874;9.154;2023-03-13T05:19:41;10.57;;;1.88;;
71464;SDS011;59274;49.874;9.154;2023-03-13T05:22:07;9.00;;;1.80;;
71464;SDS011;59274;49.874;9.154;2023-03-13T05:24:33;6.85;;;1.70;;
71464;SDS011;59274;49.874;9.154;2023-03-13T05:26:58;7.47;;;1.70;;
71464;SDS011;59274;49.874;9.154;2023-03-13T05:29:24;7.85;;;1.70;;
71464;SDS011;59274;49.874;9.154;2023-03-13T05:31:49;6.97;;;1.70;;
71464;SDS011;59274;49.874;9.154;2023-03-13T05:34:15;10.10;;;2.07;;
71464;SDS011;59274;49.874;9.154;2023-03-13T05:36:40;4.93;;;1.60;;
71464;SDS011;59274;49.874;9.154;2023-03-13T05:39:06;8.07;;;2.20;;
71464;SDS011;59274;49.874;9.154;2023-03-13T05:41:31;7.90;;;3.03;;
71464;SDS011;59274;49.874;9.154;2023-03-13T05:43:56;8.57;;;3.07;;
71464;SDS011;59274;49.874;9.154;2023-03-13T05:46:22;7.10;;;2.23;;
71464;SDS011;59274;49.874;9.154;2023-03-13T05:48:47;5.45;;;2.08;;
71464;SDS011;59274;49.874;9.154;2023-03-13T05:51:13;9.90;;;3.40;;
71464;SDS011;59274;49.874;9.154;2023-03-13T05:53:38;33.00;;;12.10;;
71464;SDS011;59274;49.874;9.154;2023-03-13T05:56:04;17.90;;;7.03;;
71464;SDS011;59274;49.874;9.154;2023-03-13T05:58:29;13.10;;;5.88;;
71464;SDS011;59274;49.874;9.154;2023-03-13T06:00:55;9.17;;;3.60;;
71464;SDS011;59274;49.874;9.154;2023-03-13T06:03:20;9.37;;;3.33;;
71464;SDS011;59274;49.874;9.154;2023-03-13T06:05:46;17.30;;;9.50;;
71464;SDS011;59274;49.874;9.154;2023-03-13T06:08:11;19.00;;;11.50;;
71464;SDS011;59274;49.874;9.154;2023-03-13T06:10:37;12.00;;;6.37;;
71464;SDS011;59274;49.874;9.154;2023-03-13T06:13:02;10.17;;;5.80;;
71464;SDS011;59274;49.874;9.154;2023-03-13T06:15:28;9.63;;;5.20;;
71464;SDS011;59274;49.874;9.154;2023-03-13T06:17:53;7.80;;;3.92;;
71464;SDS011;59274;49.874;9.154;2023-03-13T06:20:18;6.87;;;2.70;;
71464;SDS011;59274;49.874;9.154;2023-03-13T06:22:44;6.70;;;2.30;;
71464;SDS011;59274;49.874;9.154;2023-03-13T06:25:09;21.77;;;5.93;;
71464;SDS011;59274;49.874;9.154;2023-03-13T06:27:35;11.15;;;3.05;;
71464;SDS011;59274;49.874;9.154;2023-03-13T06:30:01;6.93;;;2.30;;
71464;SDS011;59274;49.874;9.154;2023-03-13T06:32:27;5.68;;;1.90;;
71464;SDS011;59274;49.874;9.154;2023-03-13T06:34:53;7.33;;;1.97;;
71464;SDS011;59274;49.874;9.154;2023-03-13T06:37:18;5.43;;;1.73;;
71464;SDS011;59274;49.874;9.154;2023-03-13T06:39:44;3.70;;;1.63;;
71464;SDS011;59274;49.874;9.154;2023-03-13T06:42:09;5.23;;;1.53;;
71464;SDS011;59274;49.874;9.154;2023-03-13T06:44:35;4.07;;;1.70;;
71464;SDS011;59274;49.874;9.154;2023-03-13T06:47:00;4.05;;;1.48;;
71464;SDS011;59274;49.874;9.154;2023-03-13T06:49:25;4.83;;;1.40;;
71464;SDS011;59274;49.874;9.154;2023-03-13T06:51:51;3.90;;;1.10;;
71464;SDS011;59274;49.874;9.154;2023-03-13T06:54:16;3.60;;;1.53;;
71464;SDS011;59274;49.874;9.154;2023-03-13T06:56:42;5.70;;;1.50;;
71464;SDS011;59274;49.874;9.154;2023-03-13T06:59:07;4.47;;;1.30;;
71464;SDS011;59274;49.874;9.154;2023-03-13T07:01:33;6.73;;;1.53;;
71464;SDS011;59274;49.874;9.154;2023-03-13T07:03:58;2.97;;;1.10;;
71464;SDS011;59274;49.874;9.154;2023-03-13T07:06:23;4.27;;;1.20;;
71464;SDS011;59274;49.874;9.154;2023-03-13T07:08:49;3.35;;;1.42;;
71464;SDS011;59274;49.874;9.154;2023-03-13T07:11:14;1.73;;;0.90;;
71464;SDS011;59274;49.874;9.154;2023-03-13T07:13:40;2.73;;;1.20;;
71464;SDS011;59274;49.874;9.154;2023-03-13T07:16:07;1.88;;;1.00;;
71464;SDS011;59274;49.874;9.154;2023-03-13T07:18:35;1.80;;;0.88;;
71464;SDS011;59274;49.874;9.154;2023-03-13T07:21:02;2.83;;;1.00;;
71464;SDS011;59274;49.874;9.154;2023-03-13T07:23:32;2.30;;;0.90;;
71464;SDS011;59274;49.874;9.154;2023-03-13T07:26:03;2.58;;;0.90;;
71464;SDS011;59274;49.874;9.154;2023-03-13T07:28:30;2.20;;;1.20;;
71464;SDS011;59274;49.874;9.154;2023-03-13T07:31:06;1.63;;;1.00;;
71464;SDS011;59274;49.874;9.154;2023-03-13T07:33:35;1.90;;;0.93;;
71464;SDS011;59274;49.874;9.154;2023-03-13T07:36:00;2.60;;;1.13;;
71464;SDS011;59274;49.874;9.154;2023-03-13T07:38:26;1.30;;;0.90;;
71464;SDS011;59274;49.874;9.154;2023-03-13T07:40:54;1.42;;;0.80;;
71464;SDS011;59274;49.874;9.154;2023-03-13T07:43:21;1.40;;;0.90;;
71464;SDS011;59274;49.874;9.154;2023-03-13T07:45:53;2.13;;;0.90;;
71464;SDS011;59274;49.874;9.154;2023-03-13T07:48:21;1.50;;;0.82;;
71464;SDS011;59274;49.874;9.154;2023-03-13T07:50:47;2.45;;;0.80;;
71464;SDS011;59274;49.874;9.154;2023-03-13T07:53:12;2.60;;;0.77;;
71464;SDS011;59274;49.874;9.154;2023-03-13T07:55:50;1.85;;;0.82;;
71464;SDS011;59274;49.874;9.154;2023-03-13T07:58:17;1.80;;;0.95;;
71464;SDS011;59274;49.874;9.154;2023-03-13T08:00:43;2.87;;;0.90;;
71464;SDS011;59274;49.874;9.154;2023-03-13T08:03:08;1.40;;;1.00;;
71464;SDS011;59274;49.874;9.154;2023-03-13T08:05:34;1.50;;;0.82;;
71464;SDS011;59274;49.874;9.154;2023-03-13T08:08:00;2.80;;;1.00;;
71464;SDS011;59274;49.874;9.154;2023-03-13T08:10:25;3.33;;;1.00;;
71464;SDS011;59274;49.874;9.154;2023-03-13T08:12:50;2.55;;;1.00;;
71464;SDS011;59274;49.874;9.154;2023-03-13T08:15:16;1.77;;;0.90;;
71464;SDS011;59274;49.874;9.154;2023-03-13T08:17:45;2.10;;;0.93;;
71464;SDS011;59274;49.874;9.154;2023-03-13T08:20:11;2.73;;;1.00;;
71464;SDS011;59274;49.874;9.154;2023-03-13T08:22:36;1.80;;;0.90;;
71464;SDS011;59274;49.874;9.154;2023-03-13T08:25:02;2.38;;;0.98;;
71464;SDS011;59274;49.874;9.154;2023-03-13T08:27:28;3.07;;;1.17;;
71464;SDS011;59274;49.874;9.154;2023-03-13T08:29:54;1.55;;;0.90;;
71464;SDS011;59274;49.874;9.154;2023-03-13T08:32:19;3.07;;;1.10;;
71464;SDS011;59274;49.874;9.154;2023-03-13T08:34:46;1.98;;;1.00;;
71464;SDS011;59274;49.874;9.154;2023-03-13T08:39:55;2.00;;;1.10;;
71464;SDS011;59274;49.874;9.154;2023-03-13T08:42:21;3.27;;;1.10;;
71464;SDS011;59274;49.874;9.154;2023-03-13T08:44:47;2.45;;;1.20;;
71464;SDS011;59274;49.874;9.154;2023-03-13T08:47:13;4.80;;;1.27;;
71464;SDS011;59274;49.874;9.154;2023-03-13T08:49:38;2.75;;;1.25;;
71464;SDS011;59274;49.874;9.154;2023-03-13T08:52:04;3.90;;;1.27;;
71464;SDS011;59274;49.874;9.154;2023-03-13T08:54:30;2.92;;;1.08;;
71464;SDS011;59274;49.874;9.154;2023-03-13T08:56:56;3.60;;;1.27;;
71464;SDS011;59274;49.874;9.154;2023-03-13T08:59:22;3.63;;;1.80;;
71464;SDS011;59274;49.874;9.154;2023-03-13T09:01:48;3.72;;;1.30;;
71464;SDS011;59274;49.874;9.154;2023-03-13T09:04:13;3.93;;;1.20;;
71464;SDS011;59274;49.874;9.154;2023-03-13T09:06:39;2.43;;;1.27;;
71464;SDS011;59274;49.874;9.154;2023-03-13T09:09:04;3.80;;;1.67;;
71464;SDS011;59274;49.874;9.154;2023-03-13T09:11:31;4.00;;;1.58;;
71464;SDS011;59274;49.874;9.154;2023-03-13T09:13:57;3.70;;;1.48;;
71464;SDS011;59274;49.874;9.154;2023-03-13T09:16:24;3.65;;;1.45;;
71464;SDS011;59274;49.874;9.154;2023-03-13T09:18:54;3.93;;;1.33;;
71464;SDS011;59274;49.874;9.154;2023-03-13T09:21:21;3.47;;;1.50;;
71464;SDS011;59274;49.874;9.154;2023-03-13T09:23:48;3.83;;;1.20;;
71464;SDS011;59274;49.874;9.154;2023-03-13T09:26:15;3.53;;;1.45;;
71464;SDS011;59274;49.874;9.154;2023-03-13T09:28:41;4.00;;;1.55;;
71464;SDS011;59274;49.874;9.154;2023-03-13T09:31:08;2.40;;;1.30;;
71464;SDS011;59274;49.874;9.154;2023-03-13T09:33:35;3.78;;;1.48;;
71464;SDS011;59274;49.874;9.154;2023-03-13T09:36:00;2.60;;;1.40;;
71464;SDS011;59274;49.874;9.154;2023-03-13T09:38:26;3.43;;;1.50;;
71464;SDS011;59274;49.874;9.154;2023-03-13T09:40:52;3.73;;;1.30;;
71464;SDS011;59274;49.874;9.154;2023-03-13T09:43:32;4.13;;;1.35;;
71464;SDS011;59274;49.874;9.154;2023-03-13T09:51:52;9.10;;;3.22;;
71464;SDS011;59274;49.874;9.154;2023-03-13T09:57:11;9.88;;;4.90;;
71464;SDS011;59274;49.874;9.154;2023-03-13T09:59:45;4.18;;;2.00;;
71464;SDS011;59274;49.874;9.154;2023-03-13T10:02:28;3.65;;;1.45;;
71464;SDS011;59274;49.874;9.154;2023-03-13T10:05:13;3.15;;;1.58;;
71464;SDS011;59274;49.874;9.154;2023-03-13T10:07:44;5.30;;;2.23;;
71464;SDS011;59274;49.874;9.154;2023-03-13T10:10:16;4.03;;;2.28;;
71464;SDS011;59274;49.874;9.154;2023-03-13T10:12:49;6.90;;;3.05;;
71464;SDS011;59274;49.874;9.154;2023-03-13T10:18:15;5.13;;;2.13;;
71464;SDS011;59274;49.874;9.154;2023-03-13T10:20:47;3.88;;;2.03;;
71464;SDS011;59274;49.874;9.154;2023-03-13T10:23:26;5.65;;;1.40;;
71464;SDS011;59274;49.874;9.154;2023-03-13T10:25:57;4.80;;;1.65;;
71464;SDS011;59274;49.874;9.154;2023-03-13T10:28:23;4.47;;;1.67;;
71464;SDS011;59274;49.874;9.154;2023-03-13T10:30:50;7.15;;;1.98;;
71464;SDS011;59274;49.874;9.154;2023-03-13T10:33:23;5.07;;;1.40;;
71464;SDS011;59274;49.874;9.154;2023-03-13T10:36:01;6.15;;;2.40;;
71464;SDS011;59274;49.874;9.154;2023-03-13T10:38:33;2.55;;;1.45;;
71464;SDS011;59274;49.874;9.154;2023-03-13T10:41:17;5.78;;;1.70;;
71464;SDS011;59274;49.874;9.154;2023-03-13T10:43:48;3.45;;;1.70;;
71464;SDS011;59274;49.874;9.154;2023-03-13T10:46:25;2.83;;;1.30;;
71464;SDS011;59274;49.874;9.154;2023-03-13T10:48:56;4.68;;;1.70;;
71464;SDS011;59274;49.874;9.154;2023-03-13T10:51:29;3.90;;;1.70;;
71464;SDS011;59274;49.874;9.154;2023-03-13T10:54:12;4.30;;;1.42;;
71464;SDS011;59274;49.874;9.154;2023-03-13T10:56:40;3.45;;;1.60;;
71464;SDS011;59274;49.874;9.154;2023-03-13T10:59:16;3.73;;;1.60;;
71464;SDS011;59274;49.874;9.154;2023-03-13T11:01:47;3.75;;;1.52;;
71464;SDS011;59274;49.874;9.154;2023-03-13T11:04:28;6.82;;;1.70;;
71464;SDS011;59274;49.874;9.154;2023-03-13T11:07:10;4.40;;;1.60;;
71464;SDS011;59274;49.874;9.154;2023-03-13T11:09:40;4.07;;;1.50;;
71464;SDS011;59274;49.874;9.154;2023-03-13T11:12:08;5.20;;;1.80;;
71464;SDS011;59274;49.874;9.154;2023-03-13T11:14:38;4.15;;;1.70;;
71464;SDS011;59274;49.874;9.154;2023-03-13T11:17:08;3.60;;;1.60;;
71464;SDS011;59274;49.874;9.154;2023-03-13T11:19:49;3.67;;;1.63;;
71464;SDS011;59274;49.874;9.154;2023-03-13T11:36:13;4.30;;;1.70;;
71464;SDS011;59274;49.874;9.154;2023-03-13T11:47:04;5.00;;;1.92;;
71464;SDS011;59274;49.874;9.154;2023-03-13T11:52:25;6.28;;;2.08;;
71464;SDS011;59274;49.874;9.154;2023-03-13T12:00:35;3.33;;;1.60;;
71464;SDS011;59274;49.874;9.154;2023-03-13T12:05:51;3.30;;;1.58;;
71464;SDS011;59274;49.874;9.154;2023-03-13T12:11:19;3.75;;;1.58;;
71464;SDS011;59274;49.874;9.154;2023-03-13T12:16:25;4.10;;;1.58;;
71464;SDS011;59274;49.874;9.154;2023-03-13T12:19:03;3.15;;;1.50;;
71464;SDS011;59274;49.874;9.154;2023-03-13T12:21:51;4.40;;;1.60;;
71464;SDS011;59274;49.874;9.154;2023-03-13T12:27:48;4.80;;;1.80;;
71464;SDS011;59274;49.874;9.154;2023-03-13T12:33:02;5.32;;;1.77;;
71464;SDS011;59274;49.874;9.154;2023-03-13T12:35:39;2.60;;;1.50;;
71464;SDS011;59274;49.874;9.154;2023-03-13T12:38:19;3.35;;;1.55;;
71464;SDS011;59274;49.874;9.154;2023-03-13T12:43:30;4.80;;;1.83;;
71464;SDS011;59274;49.874;9.154;2023-03-13T12:48:36;5.40;;;1.77;;
71464;SDS011;59274;49.874;9.154;2023-03-13T12:51:12;5.05;;;1.83;;
71464;SDS011;59274;49.874;9.154;2023-03-13T12:59:27;4.20;;;1.60;;
71464;SDS011;59274;49.874;9.154;2023-03-13T13:02:24;4.63;;;1.75;;
71464;SDS011;59274;49.874;9.154;2023-03-13T13:04:52;4.88;;;1.80;;
71464;SDS011;59274;49.874;9.154;2023-03-13T13:07:21;4.03;;;1.60;;
71464;SDS011;59274;49.874;9.154;2023-03-13T13:10:03;4.68;;;1.75;;
71464;SDS011;59274;49.874;9.154;2023-03-13T13:12:39;3.60;;;1.40;;
71464;SDS011;59274;49.874;9.154;2023-03-13T13:20:36;3.45;;;1.70;;
71464;SDS011;59274;49.874;9.154;2023-03-13T13:25:45;3.87;;;1.70;;
71464;SDS011;59274;49.874;9.154;2023-03-13T13:30:55;2.72;;;1.50;;
71464;SDS011;59274;49.874;9.154;2023-03-13T13:38:33;3.60;;;1.43;;
71464;SDS011;59274;49.874;9.154;2023-03-13T13:43:37;2.92;;;1.52;;
71464;SDS011;59274;49.874;9.154;2023-03-13T13:48:39;6.57;;;1.60;;
71464;SDS011;59274;49.874;9.154;2023-03-13T14:01:49;2.90;;;1.55;;
71464;SDS011;59274;49.874;9.154;2023-03-13T14:04:39;3.70;;;1.60;;
71464;SDS011;59274;49.874;9.154;2023-03-13T14:07:13;4.88;;;1.77;;
71464;SDS011;59274;49.874;9.154;2023-03-13T14:10:03;4.05;;;1.90;;
71464;SDS011;59274;49.874;9.154;2023-03-13T14:12:37;6.63;;;1.80;;
71464;SDS011;59274;49.874;9.154;2023-03-13T14:17:36;5.70;;;1.70;;
71464;SDS011;59274;49.874;9.154;2023-03-13T14:20:23;4.85;;;1.60;;
71464;SDS011;59274;49.874;9.154;2023-03-13T14:22:51;4.03;;;1.55;;
71464;SDS011;59274;49.874;9.154;2023-03-13T14:25:22;5.05;;;1.63;;
71464;SDS011;59274;49.874;9.154;2023-03-13T14:27:49;4.63;;;1.30;;
71464;SDS011;59274;49.874;9.154;2023-03-13T14:30:16;4.82;;;1.75;;
71464;SDS011;59274;49.874;9.154;2023-03-13T14:32:43;7.18;;;1.60;;
71464;SDS011;59274;49.874;9.154;2023-03-13T14:35:10;2.97;;;1.63;;
71464;SDS011;59274;49.874;9.154;2023-03-13T14:37:51;3.53;;;1.80;;
71464;SDS011;59274;49.874;9.154;2023-03-13T14:40:28;4.40;;;1.65;;
71464;SDS011;59274;49.874;9.154;2023-03-13T14:42:56;3.05;;;1.60;;
71464;SDS011;59274;49.874;9.154;2023-03-13T14:45:30;5.18;;;1.70;;
71464;SDS011;59274;49.874;9.154;2023-03-13T14:48:31;5.38;;;1.70;;
71464;SDS011;59274;49.874;9.154;2023-03-13T14:51:00;3.38;;;1.50;;
71464;SDS011;59274;49.874;9.154;2023-03-13T14:53:33;5.20;;;1.70;;
71464;SDS011;59274;49.874;9.154;2023-03-13T14:58:43;4.07;;;1.83;;
71464;SDS011;59274;49.874;9.154;2023-03-13T15:01:25;3.78;;;1.85;;
71464;SDS011;59274;49.874;9.154;2023-03-13T15:03:54;5.32;;;1.88;;
71464;SDS011;59274;49.874;9.154;2023-03-13T15:06:21;4.43;;;1.65;;
71464;SDS011;59274;49.874;9.154;2023-03-13T15:08:49;3.00;;;1.80;;
71464;SDS011;59274;49.874;9.154;2023-03-13T15:12:03;4.28;;;1.50;;
71464;SDS011;59274;49.874;9.154;2023-03-13T15:14:33;3.03;;;1.70;;
71464;SDS011;59274;49.874;9.154;2023-03-13T15:17:20;5.13;;;1.73;;
71464;SDS011;59274;49.874;9.154;2023-03-13T15:19:47;3.67;;;1.92;;
71464;SDS011;59274;49.874;9.154;2023-03-13T15:22:15;3.38;;;1.90;;
71464;SDS011;59274;49.874;9.154;2023-03-13T15:24:41;3.20;;;1.60;;
71464;SDS011;59274;49.874;9.154;2023-03-13T15:27:14;3.38;;;1.63;;
71464;SDS011;59274;49.874;9.154;2023-03-13T15:29:44;2.37;;;1.30;;
71464;SDS011;59274;49.874;9.154;2023-03-13T15:32:11;2.38;;;1.40;;
71464;SDS011;59274;49.874;9.154;2023-03-13T15:34:44;3.38;;;1.50;;
71464;SDS011;59274;49.874;9.154;2023-03-13T15:37:12;3.47;;;1.50;;
71464;SDS011;59274;49.874;9.154;2023-03-13T15:39:38;3.78;;;1.83;;
71464;SDS011;59274;49.874;9.154;2023-03-13T15:42:04;4.47;;;1.33;;
71464;SDS011;59274;49.874;9.154;2023-03-13T15:44:29;3.90;;;1.30;;
71464;SDS011;59274;49.874;9.154;2023-03-13T15:46:55;3.33;;;1.40;;
71464;SDS011;59274;49.874;9.154;2023-03-13T15:49:20;2.42;;;1.40;;
71464;SDS011;59274;49.874;9.154;2023-03-13T15:51:46;2.83;;;1.60;;
71464;SDS011;59274;49.874;9.154;2023-03-13T15:54:11;3.17;;;1.43;;
71464;SDS011;59274;49.874;9.154;2023-03-13T15:56:37;3.53;;;1.40;;
71464;SDS011;59274;49.874;9.154;2023-03-13T15:59:09;2.95;;;1.40;;
71464;SDS011;59274;49.874;9.154;2023-03-13T16:01:36;4.18;;;1.40;;
71464;SDS011;59274;49.874;9.154;2023-03-13T16:04:02;3.57;;;1.43;;
71464;SDS011;59274;49.874;9.154;2023-03-13T16:06:27;1.98;;;1.27;;
71464;SDS011;59274;49.874;9.154;2023-03-13T16:08:58;3.92;;;1.40;;
71464;SDS011;59274;49.874;9.154;2023-03-13T16:11:25;4.30;;;1.23;;
71464;SDS011;59274;49.874;9.154;2023-03-13T16:13:51;4.47;;;1.50;;
71464;SDS011;59274;49.874;9.154;2023-03-13T16:16:22;4.25;;;0.90;;
71464;SDS011;59274;49.874;9.154;2023-03-13T16:18:52;6.10;;;1.20;;
71464;SDS011;59274;49.874;9.154;2023-03-13T16:21:29;4.10;;;1.50;;
71464;SDS011;59274;49.874;9.154;2023-03-13T16:23:58;2.95;;;1.00;;
71464;SDS011;59274;49.874;9.154;2023-03-13T16:26:25;2.83;;;0.90;;
71464;SDS011;59274;49.874;9.154;2023-03-13T16:28:53;5.82;;;1.10;;
71464;SDS011;59274;49.874;9.154;2023-03-13T16:31:29;9.93;;;2.80;;
71464;SDS011;59274;49.874;9.154;2023-03-13T16:33:56;5.38;;;1.50;;
71464;SDS011;59274;49.874;9.154;2023-03-13T16:36:24;4.10;;;1.20;;
71464;SDS011;59274;49.874;9.154;2023-03-13T16:38:52;3.55;;;1.20;;